DIPPU EDWE-EDXH
Flight info
| Callsign | DIPPU |
|---|---|
| Flight time | 0h 19m |
| Altitude | 2500 |
| Route | VFR |
| Aircraft | BE38/L-S/S |
Departure
| Time | 2026-05-06 10:10 |
|---|---|
| Airport | Emden Airport (EDWE) |
Arrival
| Time | 2026-05-06 10:29 |
|---|---|
| Airport | Helgoland-Düne Airport (EDXH) |
| Time | Latitude | Longitude | Altitude | Speed | Heading |
|---|---|---|---|---|---|
| 2026-05-06 10:03 | 53.38962 | 7.23054 | 3 ft | 0 kts | 195° |
| 2026-05-06 10:05 | 53.38964 | 7.23055 | 3 ft | 2 kts | 195° |
| 2026-05-06 10:06 | 53.38960 | 7.23039 | 3 ft | 5 kts | 248° |
| 2026-05-06 10:06 | 53.38951 | 7.22919 | 3 ft | 16 kts | 255° |
| 2026-05-06 10:06 | 53.38922 | 7.22692 | 3 ft | 24 kts | 263° |
| 2026-05-06 10:06 | 53.38982 | 7.22525 | 1 ft | 19 kts | 303° |
| 2026-05-06 10:07 | 53.38958 | 7.22271 | 1 ft | 26 kts | 251° |
| 2026-05-06 10:07 | 53.38903 | 7.21967 | 1 ft | 14 kts | 257° |
| 2026-05-06 10:07 | 53.38902 | 7.21954 | 1 ft | 0 kts | 266° |
| 2026-05-06 10:08 | 53.38901 | 7.21939 | 1 ft | 11 kts | 269° |
| 2026-05-06 10:08 | 53.38924 | 7.21758 | 5 ft | 14 kts | 311° |
| 2026-05-06 10:08 | 53.38955 | 7.21793 | 4 ft | 0 kts | 71° |
| 2026-05-06 10:09 | 53.38962 | 7.21834 | 3 ft | 24 kts | 75° |
| 2026-05-06 10:09 | 53.39093 | 7.22591 | 76 ft | 95 kts | 74° |
| 2026-05-06 10:10 | 53.39221 | 7.23910 | 269 ft | 132 kts | 83° |
| 2026-05-06 10:10 | 53.39522 | 7.25411 | 528 ft | 145 kts | 47° |
| 2026-05-06 10:10 | 53.40305 | 7.26545 | 799 ft | 152 kts | 38° |
| 2026-05-06 10:10 | 53.41161 | 7.27637 | 1068 ft | 157 kts | 37° |
| 2026-05-06 10:11 | 53.42049 | 7.28706 | 1328 ft | 157 kts | 40° |
| 2026-05-06 10:11 | 53.42898 | 7.29867 | 1582 ft | 158 kts | 36° |
| 2026-05-06 10:11 | 53.43789 | 7.30921 | 1826 ft | 156 kts | 39° |
| 2026-05-06 10:11 | 53.44657 | 7.32015 | 2098 ft | 156 kts | 39° |
| 2026-05-06 10:12 | 53.45537 | 7.33074 | 2359 ft | 155 kts | 38° |
| 2026-05-06 10:12 | 53.46431 | 7.34067 | 2618 ft | 154 kts | 37° |
| 2026-05-06 10:12 | 53.47333 | 7.35019 | 2868 ft | 152 kts | 36° |
| 2026-05-06 10:12 | 53.48223 | 7.35946 | 3140 ft | 152 kts | 35° |
| 2026-05-06 10:13 | 53.49152 | 7.36806 | 3405 ft | 153 kts | 31° |
| 2026-05-06 10:13 | 53.50113 | 7.37574 | 3654 ft | 153 kts | 28° |
| 2026-05-06 10:13 | 53.51092 | 7.38281 | 3912 ft | 153 kts | 27° |
| 2026-05-06 10:13 | 53.52072 | 7.38978 | 4165 ft | 152 kts | 28° |
| 2026-05-06 10:14 | 53.53043 | 7.39702 | 4431 ft | 152 kts | 29° |
| 2026-05-06 10:14 | 53.53997 | 7.40458 | 4681 ft | 151 kts | 30° |
| 2026-05-06 10:14 | 53.54938 | 7.41220 | 4935 ft | 150 kts | 30° |
| 2026-05-06 10:14 | 53.55886 | 7.41974 | 5202 ft | 151 kts | 29° |
| 2026-05-06 10:15 | 53.56861 | 7.42726 | 5367 ft | 157 kts | 28° |
| 2026-05-06 10:15 | 53.57887 | 7.43504 | 5443 ft | 166 kts | 28° |
| 2026-05-06 10:15 | 53.58968 | 7.44316 | 5475 ft | 174 kts | 28° |
| 2026-05-06 10:15 | 53.60085 | 7.45162 | 5481 ft | 177 kts | 29° |
| 2026-05-06 10:16 | 53.61210 | 7.46046 | 5490 ft | 180 kts | 29° |
| 2026-05-06 10:16 | 53.62338 | 7.46945 | 5502 ft | 183 kts | 29° |
| 2026-05-06 10:16 | 53.63500 | 7.47850 | 5499 ft | 184 kts | 28° |
| 2026-05-06 10:16 | 53.64672 | 7.48744 | 5503 ft | 185 kts | 28° |
| 2026-05-06 10:17 | 53.65846 | 7.49647 | 5516 ft | 186 kts | 28° |
| 2026-05-06 10:17 | 53.67026 | 7.50565 | 5494 ft | 187 kts | 28° |
| 2026-05-06 10:17 | 53.68202 | 7.51478 | 5488 ft | 186 kts | 28° |
| 2026-05-06 10:17 | 53.69383 | 7.52394 | 5491 ft | 186 kts | 28° |
| 2026-05-06 10:18 | 53.70557 | 7.53315 | 5494 ft | 186 kts | 29° |
| 2026-05-06 10:18 | 53.71731 | 7.54231 | 5499 ft | 186 kts | 28° |
| 2026-05-06 10:18 | 53.72906 | 7.55140 | 5500 ft | 186 kts | 28° |
| 2026-05-06 10:18 | 53.74083 | 7.56053 | 5493 ft | 185 kts | 28° |
| 2026-05-06 10:19 | 53.75255 | 7.56967 | 5493 ft | 185 kts | 28° |
| 2026-05-06 10:19 | 53.76422 | 7.57878 | 5499 ft | 185 kts | 29° |
| 2026-05-06 10:19 | 53.77594 | 7.58794 | 5500 ft | 185 kts | 28° |
| 2026-05-06 10:19 | 53.78763 | 7.59708 | 5501 ft | 185 kts | 28° |
| 2026-05-06 10:20 | 53.79918 | 7.60605 | 5505 ft | 185 kts | 28° |
| 2026-05-06 10:20 | 53.81088 | 7.61518 | 5510 ft | 185 kts | 28° |
| 2026-05-06 10:20 | 53.82261 | 7.62435 | 5505 ft | 186 kts | 28° |
| 2026-05-06 10:20 | 53.83433 | 7.63351 | 5507 ft | 185 kts | 28° |
| 2026-05-06 10:21 | 53.84606 | 7.64266 | 5516 ft | 185 kts | 28° |
| 2026-05-06 10:21 | 53.85783 | 7.65191 | 5520 ft | 187 kts | 28° |
| 2026-05-06 10:21 | 53.86963 | 7.66124 | 5517 ft | 188 kts | 28° |
| 2026-05-06 10:21 | 53.88149 | 7.67051 | 5518 ft | 188 kts | 28° |
| 2026-05-06 10:22 | 53.89334 | 7.67971 | 5512 ft | 188 kts | 28° |
| 2026-05-06 10:22 | 53.90519 | 7.68900 | 5509 ft | 187 kts | 28° |
| 2026-05-06 10:22 | 53.91698 | 7.69829 | 5517 ft | 186 kts | 29° |
| 2026-05-06 10:22 | 53.92856 | 7.70740 | 5519 ft | 186 kts | 28° |
| 2026-05-06 10:23 | 53.94028 | 7.71660 | 5518 ft | 186 kts | 28° |
| 2026-05-06 10:23 | 53.95197 | 7.72589 | 5519 ft | 186 kts | 28° |
| 2026-05-06 10:23 | 53.96374 | 7.73514 | 5522 ft | 186 kts | 28° |
| 2026-05-06 10:23 | 53.97555 | 7.74434 | 5521 ft | 186 kts | 29° |
| 2026-05-06 10:24 | 53.98727 | 7.75355 | 5519 ft | 186 kts | 29° |
| 2026-05-06 10:24 | 53.99902 | 7.76285 | 5524 ft | 186 kts | 28° |
| 2026-05-06 10:24 | 54.01080 | 7.77223 | 5527 ft | 188 kts | 28° |
| 2026-05-06 10:24 | 54.02267 | 7.78157 | 5490 ft | 190 kts | 28° |
| 2026-05-06 10:25 | 54.03505 | 7.79130 | 5123 ft | 198 kts | 28° |
| 2026-05-06 10:25 | 54.04728 | 7.80094 | 4741 ft | 190 kts | 28° |
| 2026-05-06 10:25 | 54.05904 | 7.81019 | 4339 ft | 183 kts | 28° |
| 2026-05-06 10:25 | 54.07055 | 7.81932 | 3820 ft | 182 kts | 28° |
| 2026-05-06 10:26 | 54.08199 | 7.82845 | 3305 ft | 182 kts | 27° |
| 2026-05-06 10:26 | 54.09345 | 7.83757 | 2782 ft | 181 kts | 27° |
| 2026-05-06 10:26 | 54.10472 | 7.84641 | 2270 ft | 181 kts | 27° |
| 2026-05-06 10:26 | 54.11241 | 7.85251 | 1920 ft | 180 kts | 27° |
| 2026-05-06 10:27 | 54.12739 | 7.86439 | 1222 ft | 179 kts | 27° |
| 2026-05-06 10:27 | 54.13847 | 7.87328 | 892 ft | 170 kts | 26° |
| 2026-05-06 10:27 | 54.14797 | 7.88326 | 744 ft | 154 kts | 49° |
| 2026-05-06 10:27 | 54.15332 | 7.89801 | 666 ft | 139 kts | 58° |
| 2026-05-06 10:28 | 54.15625 | 7.90735 | 653 ft | 131 kts | 59° |
| 2026-05-06 10:28 | 54.16011 | 7.92065 | 645 ft | 121 kts | 59° |
| 2026-05-06 10:28 | 54.16525 | 7.93019 | 533 ft | 109 kts | 10° |
| 2026-05-06 10:28 | 54.17228 | 7.92777 | 338 ft | 97 kts | 342° |
| 2026-05-06 10:29 | 54.17797 | 7.92287 | 166 ft | 88 kts | 335° |
| 2026-05-06 10:29 | 54.18290 | 7.91717 | 27 ft | 84 kts | 328° |
| 2026-05-06 10:29 | 54.18606 | 7.91328 | 6 ft | 15 kts | 319° |
| 2026-05-06 10:29 | 54.18605 | 7.91347 | 5 ft | 4 kts | 149° |
| 2026-05-06 10:30 | 54.18600 | 7.91352 | 5 ft | 4 kts | 148° |
| 2026-05-06 10:30 | 54.18614 | 7.91438 | 3 ft | 12 kts | 53° |
| 2026-05-06 10:30 | 54.18667 | 7.91564 | 3 ft | 14 kts | 50° |
| 2026-05-06 10:30 | 54.18761 | 7.91612 | 4 ft | 15 kts | 39° |
| 2026-05-06 10:31 | 54.18771 | 7.91628 | 4 ft | 0 kts | 49° |